Relevés horaires Koksijde (Belgique)


Relevés horaires à Koksijde - Mercredi 03 Mai 2023
Heure UTC1 Température [°C] Vent [km/h] Hum. [%] Pres.4 [hPa] Visi. [Km] Nébu. [octa] Préc.5 [mm] Cond.
2m. Res. Ros. Dir.2 Vit. Moy. Raf.3
23:00 9.0 8.4 4.9 ENE 5.6 -- 9.3 75 1021.6(-1.0/3h) 16 -- -- --
22:00 9.7 9.2 5.3 ENE 5.6 -- 9.3 74 1022.2(-0.6/3h) 18 -- -- --
21:00 10.4 9.6 5.5 ENE 7.4 -- 18.5 72 1022.3(-0.7/3h) 18 -- -- --
20:00 10.6 9.8 7.2 NE 7.4 -- 14.8 79 1022.6(-1.1/3h) 17 -- -- --
19:00 11.1 10.1 7.6 NE 9.3 -- 18.5 79 1022.8(-0.9/3h) 15 -- -- --
18:00 11.8 10.4 7.3 NE 13.0 -- 22.2 74 1023.2(-1.0/3h) 14 -- -- NA
17:00 12.0 10.2 7.1 NNE 16.7 -- 22.2 72 1023.7(-1.1/3h) 18 -- -- --
16:00 12.7 11.3 7.0 NNE 14.8 -- 20.4 68 1023.8(-1.7/3h) 13 -- -- --
15:00 13.1 11.8 7.0 NNE 14.8 -- 22.2 66 1024.2(-1.9/3h) 20 4/8 -- --
14:00 13.8 12.4 6.1 NNE 16.7 -- 20.4 60 1024.9(-2.1/3h) 20 4/8 -- --
13:00 14.1 13.2 5.9 NNE 13.0 -- 18.5 58 1025.5(-2.1/3h) 20 4/8 -- --
12:00 14.4 14.3 4.2 E 7.4 -- 14.8 50 1026.2(-1.5/3h) 20 2/8 -- --
11:00 13.1 12.8 3.2 ENE 7.4 -- 14.8 51 1027(-0.7/3h) 20 2/8 -- --
10:00 12.7 12.3 3.4 E 7.4 -- 13.0 53 1027.7(-0.3/3h) 20 2/8 -- --
09:00 12.1 12 5.0 E 5.6 -- 13.0 62 1027.7(-0.1/3h) 20 3/8 -- --
08:00 10.0 9.1 4.5 E 7.4 -- 13.0 69 1027.7(-0.3/3h) 20 3/8 -- --
07:00 8.0 6.8 3.7 E 7.4 -- 13.0 74 1028(0.0/3h) 20 3/8 -- --
06:00 6.0 5 3.1 E 5.6 -- 9.3 82 1028(-0.4/3h) 15 3/8 -- --
05:00 4.7 3.5 2.5 ENE 5.6 -- 7.4 86 1028.2(0.0/3h) 15 3/8 -- --
04:00 4.1 4.1 2.0 ENE 3.7 -- 7.4 86 1028(-0.3/3h) 17 -- -- --
03:00 4.3 3.1 2.5 NE 5.6 -- 7.4 88 1028.5(-0.2/3h) 16 -- -- --
02:00 5.1 4 3.0 ENE 5.6 -- 7.4 86 1028.2(-0.6/3h) 13 -- -- --
01:00 5.4 4.3 2.9 ENE 5.6 -- 7.4 84 1028.5(-0.4/3h) 18 -- -- --
00:00 5.3 5.3 2.6 ENE 3.7 -- 16.7 83 1028.7(-0.3/3h) 20 -- -- --

1 Coordinated Universal Time. Actuellement il est 11:00 locale et 09:00 UTC.

2 Le vent souffle depuis la direction indiquée vers la direction oposée.

3 Les rafales max. sont disponible 40 min après l'heure du relevé.

4 Pour les stations d'altitude (plus de 600m) le géopotentiel du niveau le plus proche de la pression obligatoire est indiqué.

5 Les stations disposant d'un diffuseur peuvent indiquer "trace". Cela signifie que des précipitations ont touchés le sol mais que la quantité est inférieure à 0.1 mm.

Récapitulatif de la journée
Température [°C] Vent [km/h] Ensoleillement4 [h] Precipitations totale5 [mm] Pression [Hpa]
Min1 Max.2 Moy.3 Max. Min Max.
3.6 14.8 0 22.2 0 h 0 min 0 1021.6 1028.7

1 Température minimale relevée entre 18:00 UTC la veille et 18:00 UTC le jour donné.

2 Température maximale relevée entre 06:00 UTC le jour donné et 06:00 UTC le lendemain.

3 Vent moyen de la journée basé sur les relevés horaires.

4 Ensoleillement en heures relevé entre 06:00 UTC la veille et 06:00 UTC le jour donné.

5 Précipitations totales tombées entre 06:00 UTC la jour donné et 06:00 UTC le lendemain.

Graphiques horaires